Terminal Aerodrome Forecast
Issued by NWS Nashville, TN

Home | Current Version | Previous Version | Text Only | Print | Product List | Glossary On
Versions: 1 2 3 4 5 6 7 8 9 10 11 12 13 14 15 16 17 18 19 20 21 22 23 24 25 26
000
FTUS44 KOHX 190600 AAA
TAFCSV
TAF AMD
KCSV 190624Z 1906/2006 00000KT 6SM BR OVC025
     FM191000 01004KT 5SM BR SCT025 BKN040
     FM191400 03004KT P6SM SCT040
     FM200400 05003KT P6SM BKN030=

USA.gov is the U.S. government's official web portal to all federal, state and local government web resources and services.